Time;durP1;ratioP1;P1;durP2;ratioP2;P2;SDS_P1;SDS_P2;PMS_P1;PMS_P2;Temp;Humidity;BMP_temperature;BMP_pressure;BME280_temperature;BME280_humidity;BME280_pressure;Samples;Min_cycle;Max_cycle;Signal;HPM_P1;HPM_P2
2022/05/05 00:00:30;;;;;;;19.25;10.60;;;;;;;7.87;86.12;102134.97;5076468;28;20042;-71
2022/05/05 00:02:55;;;;;;;18.70;10.88;;;;;;;7.87;86.25;102131.47;5077127;28;20443;-72
2022/05/05 00:05:21;;;;;;;19.45;10.18;;;;;;;7.87;86.38;102134.97;5076605;28;20115;-72
2022/05/05 00:07:46;;;;;;;17.80;10.10;;;;;;;7.88;86.97;102130.50;5094403;28;20507;-71
2022/05/05 00:15:39;;;;;;;18.63;10.20;;;;;;;7.63;87.52;102133.72;5111670;28;20070;-70
2022/05/05 00:18:05;;;;;;;22.02;11.30;;;;;;;7.49;88.09;102126.56;5112117;28;20027;-70
2022/05/05 00:20:30;;;;;;;18.35;10.57;;;;;;;7.35;88.33;102125.56;5111219;28;20028;-70
2022/05/05 00:22:56;;;;;;;19.83;10.95;;;;;;;7.25;88.70;102134.97;5111885;28;20447;-71
2022/05/05 00:25:21;;;;;;;20.50;10.60;;;;;;;7.14;89.29;102140.00;5111265;28;20027;-71
2022/05/05 00:27:46;;;;;;;22.20;10.50;;;;;;;7.05;89.51;102136.91;5111730;28;20463;-72
2022/05/05 00:30:12;;;;;;;16.02;10.13;;;;;;;7.02;89.73;102137.09;5111439;28;20027;-69
2022/05/05 00:32:38;;;;;;;20.83;11.07;;;;;;;6.96;90.08;102137.44;5078601;28;20059;-70
2022/05/05 00:35:04;;;;;;;22.45;10.93;;;;;;;6.93;90.89;102142.91;5112004;28;20059;-70
2022/05/05 00:37:29;;;;;;;17.08;9.02;;;;;;;6.87;90.94;102141.44;5110762;28;20073;-72
2022/05/05 00:39:55;;;;;;;21.95;11.20;;;;;;;6.84;91.04;102138.09;5115699;28;20036;-73
2022/05/05 00:42:20;;;;;;;20.08;10.60;;;;;;;6.81;91.52;102135.63;5114835;28;20047;-72
2022/05/05 00:44:45;;;;;;;25.35;12.20;;;;;;;6.79;92.25;102130.41;5115084;28;20119;-72
2022/05/05 00:47:15;;;;;;;27.90;11.55;;;;;;;6.81;93.03;102127.69;5116330;28;20145;-72
2022/05/05 00:49:40;;;;;;;18.73;10.95;;;;;;;6.85;93.80;102134.50;5116307;28;20028;-73
2022/05/05 00:52:06;;;;;;;23.42;11.57;;;;;;;6.87;94.28;102132.66;5116078;28;20024;-73
2022/05/05 00:54:31;;;;;;;19.23;11.05;;;;;;;6.90;94.24;102127.19;5115820;28;20149;-72
2022/05/05 00:56:57;;;;;;;20.45;10.85;;;;;;;6.94;94.26;102130.50;5114517;28;20095;-72
2022/05/05 00:59:23;;;;;;;18.65;10.45;;;;;;;6.96;94.37;102126.84;5116018;28;20129;-73
2022/05/05 01:01:48;;;;;;;17.00;10.35;;;;;;;6.99;94.10;102125.84;5116498;28;20038;-71
2022/05/05 01:04:14;;;;;;;23.38;11.80;;;;;;;7.03;93.86;102130.00;5116018;28;20031;-71
2022/05/05 01:06:40;;;;;;;19.05;11.02;;;;;;;7.05;94.19;102122.84;5115574;28;20134;-72
2022/05/05 01:09:06;;;;;;;30.52;12.13;;;;;;;7.06;94.07;102124.53;5116270;28;20086;-71
2022/05/05 01:11:32;;;;;;;24.80;11.38;;;;;;;7.10;94.07;102122.59;5114330;28;20027;-72
2022/05/05 01:13:57;;;;;;;24.35;11.93;;;;;;;7.13;94.48;102119.78;5115689;28;20046;-72
2022/05/05 01:16:23;;;;;;;19.85;11.10;;;;;;;7.17;94.85;102113.38;5115276;28;20442;-72
2022/05/05 01:18:51;;;;;;;19.63;11.25;;;;;;;7.21;94.75;102115.75;5114700;28;20031;-72
2022/05/05 01:21:19;;;;;;;18.88;11.15;;;;;;;7.24;94.49;102120.03;5115216;28;20463;-72
2022/05/05 01:23:44;;;;;;;19.83;9.73;;;;;;;7.26;94.17;102117.31;5115130;28;20088;-72
2022/05/05 01:28:54;;;;;;;18.17;10.50;;;;;;;7.33;94.05;102121.28;5115994;28;20118;-72
2022/05/05 01:31:20;;;;;;;18.65;10.00;;;;;;;7.36;94.28;102114.03;5115317;28;20177;-73
2022/05/05 01:33:45;;;;;;;19.52;10.18;;;;;;;7.37;94.00;102112.25;5115424;28;20123;-72
2022/05/05 01:36:11;;;;;;;17.50;10.13;;;;;;;7.38;93.58;102111.31;5114433;28;20080;-72
2022/05/05 01:38:37;;;;;;;19.05;10.02;;;;;;;7.39;93.73;102111.22;5115295;28;20035;-72
2022/05/05 01:41:12;;;;;;;22.42;10.75;;;;;;;7.40;93.80;102110.28;5114812;28;20028;-73
2022/05/05 01:43:40;;;;;;;17.90;10.07;;;;;;;7.37;93.61;102113.06;5115095;28;20379;-73
2022/05/05 01:46:06;;;;;;;19.83;9.55;;;;;;;7.36;93.47;102118.47;5115002;28;20104;-73
2022/05/05 01:48:32;;;;;;;15.15;9.52;;;;;;;7.34;93.18;102113.25;5114541;28;20537;-72
2022/05/05 01:50:58;;;;;;;25.88;10.52;;;;;;;7.31;93.14;102116.06;5096541;28;20126;-73
2022/05/05 01:53:24;;;;;;;19.17;10.20;;;;;;;7.30;93.45;102121.47;5114942;28;20102;-72
2022/05/05 01:55:49;;;;;;;18.08;10.30;;;;;;;7.30;93.57;102124.09;5115270;28;20384;-72
2022/05/05 01:58:14;;;;;;;18.02;10.32;;;;;;;7.35;93.46;102128.22;5114832;28;20035;-73
2022/05/05 02:00:40;;;;;;;19.83;10.02;;;;;;;7.37;93.47;102122.81;5114704;28;20024;-72
2022/05/05 02:03:12;;;;;;;18.85;10.02;;;;;;;7.35;93.33;102130.84;5114372;28;20036;-72
2022/05/05 02:05:40;;;;;;;19.27;10.73;;;;;;;7.34;93.48;102125.66;5114301;28;20031;-72
2022/05/05 02:08:06;;;;;;;22.20;10.65;;;;;;;7.31;93.83;102126.66;5096297;28;20459;-71
2022/05/05 02:10:31;;;;;;;25.80;11.60;;;;;;;7.28;94.02;102126.00;5096476;28;20035;-73
2022/05/05 02:12:58;;;;;;;24.40;12.15;;;;;;;7.24;94.55;102128.81;5114913;28;20089;-72
2022/05/05 02:15:24;;;;;;;23.83;11.05;;;;;;;7.21;94.55;102136.94;5114432;28;20426;-72
2022/05/05 02:17:51;;;;;;;21.77;11.30;;;;;;;7.16;94.85;102135.47;5114806;28;20046;-72
2022/05/05 02:20:16;;;;;;;23.23;11.45;;;;;;;7.09;94.49;102139.41;5114588;28;20031;-72
2022/05/05 02:22:42;;;;;;;17.58;11.02;;;;;;;7.00;94.67;102141.63;5114917;28;20032;-72
2022/05/05 02:25:08;;;;;;;25.52;12.15;;;;;;;6.93;94.61;102139.41;5114462;28;20031;-73
2022/05/05 02:27:51;;;;;;;25.83;11.55;;;;;;;6.85;94.93;102134.50;5114283;28;20103;-73
2022/05/05 02:30:18;;;;;;;23.23;11.55;;;;;;;6.77;95.05;102136.72;5114020;28;20463;-73
2022/05/05 02:32:43;;;;;;;20.33;10.10;;;;;;;6.68;94.90;102138.91;5114782;28;20048;-73
2022/05/05 02:35:09;;;;;;;19.33;10.40;;;;;;;6.58;94.77;102137.69;5114163;28;20485;-73
2022/05/05 02:40:18;;;;;;;19.20;10.57;;;;;;;6.43;94.86;102144.63;5114165;28;20070;-72
2022/05/05 02:42:44;;;;;;;24.73;12.57;;;;;;;6.38;94.86;102140.56;5114149;28;20031;-72
2022/05/05 02:45:09;;;;;;;19.25;9.85;;;;;;;6.33;95.01;102139.00;5114140;28;20059;-72
2022/05/05 02:47:35;;;;;;;20.75;11.25;;;;;;;6.29;94.74;102140.06;5113325;28;20032;-72
2022/05/05 02:50:00;;;;;;;26.60;12.18;;;;;;;6.28;95.52;102140.16;5079413;28;20037;-72
2022/05/05 02:52:25;;;;;;;25.45;11.80;;;;;;;6.25;96.16;102138.53;5113622;28;20035;-72
2022/05/05 02:54:51;;;;;;;16.30;10.18;;;;;;;6.23;95.79;102145.69;5114057;28;20085;-71
2022/05/05 02:57:23;;;;;;;19.23;10.60;;;;;;;6.21;95.84;102134.34;5114122;28;20030;-72
2022/05/05 02:59:49;;;;;;;21.17;11.52;;;;;;;6.24;96.30;102135.97;5113980;28;20089;-72
2022/05/05 03:02:15;;;;;;;19.80;10.82;;;;;;;6.27;96.69;102135.78;5095600;28;20023;-71
2022/05/05 03:04:40;;;;;;;19.98;10.45;;;;;;;6.28;96.95;102133.06;5095391;28;20043;-72
2022/05/05 03:07:06;;;;;;;23.35;12.25;;;;;;;6.34;96.94;102142.47;5114287;28;20035;-72
2022/05/05 03:09:32;;;;;;;21.05;10.80;;;;;;;6.36;97.14;102143.28;5079466;28;20035;-71
2022/05/05 03:11:57;;;;;;;21.35;11.23;;;;;;;6.41;97.39;102141.22;5095684;28;20024;-72
2022/05/05 03:14:22;;;;;;;25.63;11.52;;;;;;;6.45;97.71;102137.50;5113699;28;20031;-72
2022/05/05 03:16:48;;;;;;;23.52;11.65;;;;;;;6.52;98.20;102140.66;5113332;28;20460;-72
2022/05/05 03:19:13;;;;;;;20.20;11.98;;;;;;;6.57;98.43;102138.66;5078609;28;20028;-73
2022/05/05 03:21:39;;;;;;;22.02;12.75;;;;;;;6.59;98.60;102135.91;5113252;28;20115;-72
2022/05/05 03:24:05;;;;;;;20.70;10.95;;;;;;;6.63;98.46;102142.75;5113246;28;20508;-72
2022/05/05 03:26:30;;;;;;;21.45;12.18;;;;;;;6.66;98.42;102139.94;5113894;28;20468;-72
2022/05/05 03:28:56;;;;;;;23.90;11.45;;;;;;;6.69;98.60;102138.00;5113421;28;20076;-72
2022/05/05 03:31:22;;;;;;;21.33;11.65;;;;;;;6.72;98.80;102142.28;5113375;28;20169;-72
2022/05/05 03:33:48;;;;;;;18.80;11.23;;;;;;;6.76;98.90;102133.22;5113145;28;20083;-72
2022/05/05 03:36:14;;;;;;;17.48;10.98;;;;;;;6.78;98.99;102136.63;5113359;28;20479;-72
2022/05/05 03:38:39;;;;;;;23.75;11.80;;;;;;;6.80;98.96;102136.56;5113188;28;20028;-73
2022/05/05 03:41:05;;;;;;;20.48;11.30;;;;;;;6.81;98.85;102138.28;5113287;28;20118;-72
2022/05/05 03:43:31;;;;;;;18.67;10.65;;;;;;;6.82;98.84;102134.66;5113538;28;20071;-72
2022/05/05 03:45:56;;;;;;;21.73;11.30;;;;;;;6.84;98.82;102138.09;5114013;28;20028;-72
2022/05/05 03:48:22;;;;;;;19.08;10.85;;;;;;;6.87;98.72;102145.88;5113870;28;20028;-72
2022/05/05 03:50:47;;;;;;;25.88;11.70;;;;;;;6.87;98.39;102141.44;5094962;28;20039;-72
2022/05/05 03:53:12;;;;;;;22.65;10.82;;;;;;;6.89;98.44;102141.34;5078149;28;20028;-72
2022/05/05 03:55:38;;;;;;;23.35;11.32;;;;;;;6.92;98.50;102138.53;5095660;28;20039;-72
2022/05/05 03:58:03;;;;;;;18.27;10.50;;;;;;;6.94;98.53;102138.44;5096314;28;20046;-72
2022/05/05 04:00:29;;;;;;;20.75;11.57;;;;;;;6.98;98.28;102140.00;5116836;28;20038;-72
2022/05/05 04:05:38;;;;;;;25.08;11.18;;;;;;;7.04;98.23;102139.66;5117183;28;20481;-71
2022/05/05 04:08:04;;;;;;;22.52;12.38;;;;;;;7.07;98.08;102148.25;5116979;28;20028;-72
2022/05/05 04:10:31;;;;;;;22.13;11.60;;;;;;;7.12;97.97;102141.88;5098582;28;20035;-72
2022/05/05 04:12:56;;;;;;;20.73;11.25;;;;;;;7.15;98.22;102147.88;5098768;28;20031;-72
2022/05/05 04:15:22;;;;;;;17.92;10.45;;;;;;;7.18;98.24;102146.81;5117502;28;20444;-73
2022/05/05 04:17:48;;;;;;;20.83;10.90;;;;;;;7.21;98.03;102144.88;5098712;28;20035;-72
2022/05/05 04:20:14;;;;;;;20.35;11.05;;;;;;;7.24;97.85;102150.00;5116746;28;20027;-72
2022/05/05 04:22:39;;;;;;;17.77;10.63;;;;;;;7.29;97.81;102151.53;5116835;28;20097;-72
2022/05/05 04:25:05;;;;;;;18.35;10.65;;;;;;;7.32;97.75;102152.22;5116211;28;20031;-72
2022/05/05 04:27:31;;;;;;;20.55;11.07;;;;;;;7.36;97.71;102156.41;5116467;28;20524;-72
2022/05/05 04:29:57;;;;;;;22.88;11.88;;;;;;;7.39;97.73;102145.63;5098448;28;20049;-72
2022/05/05 04:32:22;;;;;;;18.88;10.52;;;;;;;7.44;97.90;102147.19;5116144;28;20368;-72
2022/05/05 04:34:48;;;;;;;23.10;11.15;;;;;;;7.50;97.88;102152.13;5116884;28;20379;-73
2022/05/05 04:37:13;;;;;;;18.75;10.43;;;;;;;7.55;97.94;102152.72;5116060;28;20032;-72
2022/05/05 04:39:39;;;;;;;19.77;10.43;;;;;;;7.59;97.78;102154.25;5081247;28;20473;-72
2022/05/05 04:42:06;;;;;;;18.77;11.10;;;;;;;7.64;97.66;102160.13;5115971;28;20524;-72
2022/05/05 04:44:31;;;;;;;17.77;11.27;;;;;;;7.69;97.42;102157.25;5098330;28;20039;-72
2022/05/05 04:46:56;;;;;;;19.55;10.40;;;;;;;7.74;97.53;102158.66;5116149;28;20028;-72
2022/05/05 04:49:22;;;;;;;22.05;10.82;;;;;;;7.79;97.44;102161.03;5116172;28;20380;-72
2022/05/05 04:51:47;;;;;;;16.80;10.70;;;;;;;7.82;97.15;102160.84;5098234;28;20036;-72
2022/05/05 04:54:12;;;;;;;21.95;10.98;;;;;;;7.88;97.17;102165.84;5115962;28;20046;-72
2022/05/05 04:56:38;;;;;;;21.75;10.52;;;;;;;7.92;97.13;102166.50;5116145;28;20384;-72
2022/05/05 04:59:03;;;;;;;16.85;10.32;;;;;;;7.96;96.96;102170.69;5115851;28;20085;-72
2022/05/05 05:01:28;;;;;;;22.13;10.50;;;;;;;8.01;96.78;102173.06;5098123;28;20032;-72
2022/05/05 05:03:54;;;;;;;16.52;9.55;;;;;;;8.05;96.39;102169.28;5115898;28;20345;-72
2022/05/05 05:06:19;;;;;;;20.23;10.00;;;;;;;8.10;96.45;102176.00;5097596;28;20036;-73
2022/05/05 05:08:45;;;;;;;16.80;9.95;;;;;;;8.14;96.13;102171.41;5115456;28;20027;-71
2022/05/05 05:11:11;;;;;;;18.35;10.50;;;;;;;8.21;95.79;102174.53;5114703;28;20534;-71
2022/05/05 05:13:36;;;;;;;18.70;9.77;;;;;;;8.27;95.57;102179.47;5115639;28;20055;-71
2022/05/05 05:16:02;;;;;;;29.52;12.00;;;;;;;8.33;95.42;102183.53;5115993;28;20024;-72
2022/05/05 05:18:27;;;;;;;22.42;10.50;;;;;;;8.37;95.11;102185.06;5115701;28;20589;-72
2022/05/05 05:20:53;;;;;;;14.05;9.45;;;;;;;8.44;94.67;102195.25;5115283;28;20214;-72
2022/05/05 05:23:18;;;;;;;19.17;10.13;;;;;;;8.51;94.24;102197.53;5115597;28;20404;-71
2022/05/05 05:25:44;;;;;;;15.35;9.88;;;;;;;8.58;93.94;102204.19;5096985;28;20108;-72
2022/05/05 05:28:11;;;;;;;14.55;9.32;;;;;;;8.63;93.32;102199.47;5097037;28;20026;-72
2022/05/05 05:30:37;;;;;;;16.23;9.32;;;;;;;8.70;93.16;102208.75;5115589;28;20111;-72
2022/05/05 05:33:03;;;;;;;15.35;9.50;;;;;;;8.78;93.02;102209.13;5114831;28;20043;-72
2022/05/05 05:35:28;;;;;;;16.17;9.13;;;;;;;8.84;92.88;102215.88;5115507;28;20027;-72
2022/05/05 05:37:54;;;;;;;21.42;11.05;;;;;;;8.91;92.69;102216.34;5097008;28;20452;-72
2022/05/05 05:40:19;;;;;;;18.00;9.98;;;;;;;8.95;92.50;102217.88;5096834;28;20488;-72
2022/05/05 05:42:45;;;;;;;16.20;9.60;;;;;;;8.98;92.15;102217.66;5096982;28;20110;-72
2022/05/05 05:45:10;;;;;;;15.23;9.70;;;;;;;9.03;91.32;102222.69;5114614;28;20035;-72
2022/05/05 05:47:36;;;;;;;18.10;10.07;;;;;;;9.06;91.18;102227.81;5114705;28;20118;-72
2022/05/05 05:50:01;;;;;;;18.02;9.55;;;;;;;9.10;91.11;102224.88;5115269;28;20137;-72
2022/05/05 05:52:27;;;;;;;15.63;9.80;;;;;;;9.16;90.94;102227.13;5114867;28;20182;-72
2022/05/05 05:54:52;;;;;;;16.00;9.98;;;;;;;9.23;90.98;102226.78;5096811;28;20036;-71
2022/05/05 05:57:17;;;;;;;19.17;10.38;;;;;;;9.30;90.39;102230.72;5115110;28;20028;-72
2022/05/05 05:59:43;;;;;;;16.52;9.88;;;;;;;9.37;89.97;102231.22;5114371;28;20027;-73
2022/05/05 06:04:52;;;;;;;16.45;10.05;;;;;;;9.58;89.83;102236.97;5114946;28;20084;-73
2022/05/05 06:07:18;;;;;;;18.52;10.18;;;;;;;9.65;89.11;102238.28;5114962;28;20121;-73
2022/05/05 06:09:43;;;;;;;23.17;10.93;;;;;;;9.74;88.28;102239.50;5115070;28;20436;-72
2022/05/05 06:12:09;;;;;;;16.63;10.38;;;;;;;9.81;87.17;102241.66;5114865;28;20444;-73
2022/05/05 06:14:34;;;;;;;20.83;10.35;;;;;;;9.89;86.89;102244.63;5114474;28;20039;-72
2022/05/05 06:17:00;;;;;;;20.95;10.35;;;;;;;9.97;86.05;102253.94;5096445;28;20513;-71
2022/05/05 06:19:25;;;;;;;20.50;10.15;;;;;;;10.03;85.77;102245.53;5114161;28;20038;-72
2022/05/05 06:21:51;;;;;;;22.20;10.45;;;;;;;10.09;85.70;102254.94;5096024;28;20032;-72
2022/05/05 06:24:16;;;;;;;19.73;10.35;;;;;;;10.15;85.93;102250.06;5113771;28;20032;-72
2022/05/05 06:26:42;;;;;;;19.73;10.90;;;;;;;10.21;84.76;102252.31;5114378;28;20448;-70
2022/05/05 06:29:08;;;;;;;23.63;10.63;;;;;;;10.33;85.21;102253.34;5096519;28;20035;-71
2022/05/05 06:31:33;;;;;;;18.50;11.35;;;;;;;10.43;84.77;102250.91;5113665;28;20106;-71
2022/05/05 06:33:59;;;;;;;20.58;11.73;;;;;;;10.52;84.27;102260.06;5114357;28;20521;-72
2022/05/05 06:36:24;;;;;;;22.63;10.85;;;;;;;10.57;83.97;102257.97;5114051;28;20038;-72
2022/05/05 06:38:53;;;;;;;19.38;10.95;;;;;;;10.66;83.63;102267.09;5113876;28;20110;-71
2022/05/05 06:41:20;;;;;;;20.98;10.68;;;;;;;10.74;83.62;102268.28;5114256;28;20046;-71
2022/05/05 06:43:45;;;;;;;17.70;11.00;;;;;;;10.85;83.73;102267.56;5113560;28;20027;-70
2022/05/05 06:46:10;;;;;;;21.60;12.05;;;;;;;10.93;83.33;102267.03;5113574;28;20053;-71
2022/05/05 06:48:36;;;;;;;23.00;11.93;;;;;;;11.02;82.34;102271.72;5095309;28;20486;-71
2022/05/05 06:51:02;;;;;;;26.95;12.52;;;;;;;11.08;82.25;102273.94;5095147;28;20069;-71
2022/05/05 06:53:27;;;;;;;22.48;13.05;;;;;;;11.16;82.31;102278.72;5113496;28;20122;-71
2022/05/05 06:55:55;;;;;;;24.13;12.60;;;;;;;11.20;81.52;102280.22;5095450;28;20168;-70
2022/05/05 06:58:22;;;;;;;21.25;12.27;;;;;;;11.31;82.61;102278.63;5096003;28;20092;-70
2022/05/05 07:03:32;;;;;;;28.95;12.45;;;;;;;11.56;81.45;102283.91;5113451;28;20043;-71
2022/05/05 07:05:58;;;;;;;21.92;12.68;;;;;;;11.64;81.04;102283.34;5113781;28;20127;-70
2022/05/05 07:08:23;;;;;;;23.67;12.70;;;;;;;11.73;80.67;102288.00;5095103;28;20087;-72
2022/05/05 07:10:54;;;;;;;28.10;12.50;;;;;;;11.78;80.14;102288.53;5113043;28;20114;-71
2022/05/05 07:13:22;;;;;;;26.17;12.73;;;;;;;11.87;80.99;102287.00;5113502;28;20436;-70
2022/05/05 07:15:47;;;;;;;22.90;12.48;;;;;;;11.94;81.18;102287.44;5095150;28;20032;-74
2022/05/05 07:18:13;;;;;;;22.17;12.70;;;;;;;12.03;82.24;102292.09;5113288;28;20108;-71
2022/05/05 07:20:38;;;;;;;24.20;13.40;;;;;;;12.13;81.65;102298.44;5113242;28;20439;-73
2022/05/05 07:23:05;;;;;;;24.27;13.20;;;;;;;12.22;81.07;102291.59;5113325;28;20050;-71
2022/05/05 07:25:30;;;;;;;24.02;13.73;;;;;;;12.30;80.55;102289.19;5095181;28;20061;-72
2022/05/05 07:27:56;;;;;;;28.55;14.05;;;;;;;12.39;80.50;102293.00;5113014;28;20088;-71
2022/05/05 07:30:22;;;;;;;24.88;15.32;;;;;;;12.52;79.36;102291.09;5095399;28;20059;-71
2022/05/05 07:32:47;;;;;;;20.23;13.25;;;;;;;12.62;79.68;102287.72;5097552;28;20070;-71
2022/05/05 07:35:13;;;;;;;25.67;14.27;;;;;;;12.75;79.48;102298.31;5116516;28;20028;-70
2022/05/05 07:37:39;;;;;;;23.23;14.15;;;;;;;12.90;79.01;102296.28;5116990;28;20032;-70
2022/05/05 07:40:06;;;;;;;29.25;15.23;;;;;;;13.05;78.08;102295.94;5116564;28;20039;-70
2022/05/05 07:42:32;;;;;;;35.50;15.73;;;;;;;13.17;77.41;102295.97;5117196;28;20024;-71
2022/05/05 07:44:58;;;;;;;27.40;14.70;;;;;;;13.24;76.58;102299.84;5098867;28;20080;-70
2022/05/05 07:47:25;;;;;;;32.92;17.10;;;;;;;13.35;78.07;102299.03;5116657;28;20052;-71
2022/05/05 07:49:50;;;;;;;36.60;19.10;;;;;;;13.43;76.95;102299.25;5117524;28;20035;-70
2022/05/05 07:52:16;;;;;;;31.63;18.92;;;;;;;13.48;76.80;102306.91;5116165;28;20482;-70
2022/05/05 07:54:44;;;;;;;41.40;20.50;;;;;;;13.60;77.19;102305.09;5117125;28;20433;-70
2022/05/05 07:57:16;;;;;;;49.83;24.17;;;;;;;13.71;75.00;102302.41;5099073;28;20039;-70
2022/05/05 07:59:45;;;;;;;44.35;23.38;;;;;;;13.86;74.40;102308.34;5117689;28;20035;-70
2022/05/05 08:02:14;;;;;;;48.05;25.15;;;;;;;13.97;73.78;102310.97;5099134;28;20034;-70
2022/05/05 08:04:40;;;;;;;51.65;25.25;;;;;;;14.07;71.99;102305.72;5098801;28;20031;-70
2022/05/05 08:07:06;;;;;;;46.85;26.17;;;;;;;14.25;72.69;102324.78;5116949;28;20036;-71
2022/05/05 08:09:32;;;;;;;51.17;27.02;;;;;;;14.36;71.25;102321.19;5115141;28;20464;-70
2022/05/05 08:11:59;;;;;;;56.45;29.63;;;;;;;14.48;72.30;102322.88;5114965;28;20047;-71
2022/05/05 08:14:28;;;;;;;51.00;27.58;;;;;;;14.69;70.94;102316.69;5115493;28;20042;-70
2022/05/05 08:16:54;;;;;;;45.25;26.30;;;;;;;14.94;68.41;102318.13;5115192;28;20114;-70
2022/05/05 08:19:21;;;;;;;53.47;28.25;;;;;;;15.03;69.24;102317.31;5116188;28;20050;-70
2022/05/05 08:21:47;;;;;;;52.53;28.77;;;;;;;15.10;70.09;102326.53;5116764;28;20036;-70
2022/05/05 08:29:40;;;;;;;54.53;31.58;;;;;;;15.31;67.65;102329.19;5116097;28;20091;-69
2022/05/05 08:32:06;;;;;;;53.10;31.08;;;;;;;15.66;66.01;102329.78;5116258;28;20417;-70
2022/05/05 08:34:32;;;;;;;52.50;30.77;;;;;;;15.81;65.64;102339.16;5116915;28;20426;-70
2022/05/05 08:36:57;;;;;;;53.25;31.30;;;;;;;15.88;65.76;102335.91;5098834;28;20040;-69
2022/05/05 08:39:22;;;;;;;54.03;32.33;;;;;;;15.90;64.76;102340.16;5098689;28;20073;-71
2022/05/05 08:41:48;;;;;;;55.78;31.58;;;;;;;16.06;65.67;102346.84;5116560;28;20028;-70
2022/05/05 08:44:14;;;;;;;50.70;30.98;;;;;;;16.22;64.02;102339.91;5115403;28;20028;-70
2022/05/05 08:46:40;;;;;;;49.78;30.30;;;;;;;16.16;63.21;102337.81;5115667;28;20035;-70
2022/05/05 08:49:07;;;;;;;51.53;30.52;;;;;;;16.34;64.88;102343.31;5116633;28;20023;-69
2022/05/05 08:51:53;;;;;;;56.95;31.33;;;;;;;16.24;66.18;102347.84;5097976;28;20047;-69
2022/05/05 08:54:23;;;;;;;50.45;31.17;;;;;;;15.85;64.74;102348.63;5116202;28;20058;-71
2022/05/05 08:56:48;;;;;;;49.97;30.92;;;;;;;15.98;65.19;102353.75;5116231;28;20463;-70
2022/05/05 08:59:15;;;;;;;55.15;31.17;;;;;;;16.19;64.67;102345.56;5115967;28;20085;-69
2022/05/05 09:01:40;;;;;;;56.58;31.63;;;;;;;16.28;63.92;102356.47;5115953;28;20028;-69
2022/05/05 09:04:07;;;;;;;50.95;31.30;;;;;;;16.55;63.28;102359.31;5115674;28;20060;-69
2022/05/05 09:06:42;;;;;;;52.72;31.10;;;;;;;16.60;62.23;102360.72;5115916;28;20031;-70
2022/05/05 09:09:22;;;;;;;51.30;31.25;;;;;;;16.65;62.25;102363.84;5097432;28;20039;-69
2022/05/05 09:12:06;;;;;;;56.88;31.48;;;;;;;16.82;62.62;102365.78;5098183;28;20027;-68
2022/05/05 09:14:41;;;;;;;55.95;31.15;;;;;;;17.18;61.64;102368.75;5115714;28;20371;-69
2022/05/05 09:17:07;;;;;;;50.25;30.48;;;;;;;17.39;60.47;102360.47;5115638;28;20091;-70
2022/05/05 09:19:42;;;;;;;50.75;29.75;;;;;;;17.55;59.12;102372.44;5080695;28;20024;-71
2022/05/05 09:22:08;;;;;;;49.15;28.80;;;;;;;17.70;58.13;102362.03;5115993;28;20133;-70
2022/05/05 09:24:35;;;;;;;50.25;29.85;;;;;;;17.68;57.83;102372.97;5114998;28;20023;-69
2022/05/05 09:27:17;;;;;;;48.45;29.42;;;;;;;17.80;57.64;102370.91;5115421;28;20035;-70
2022/05/05 09:29:43;;;;;;;45.28;28.00;;;;;;;17.95;55.89;102376.69;5115102;28;20024;-70
2022/05/05 09:32:12;;;;;;;53.28;29.75;;;;;;;17.97;57.50;102378.25;5114911;28;20032;-70
2022/05/05 09:34:41;;;;;;;55.42;30.20;;;;;;;18.25;56.29;102370.09;5115385;28;20042;-70
2022/05/05 09:37:19;;;;;;;49.17;29.98;;;;;;;18.39;54.95;102375.97;5115035;28;20068;-69
2022/05/05 09:39:45;;;;;;;51.50;30.15;;;;;;;18.17;56.89;102383.50;5115917;28;20031;-70
2022/05/05 09:42:10;;;;;;;48.33;29.08;;;;;;;18.30;56.28;102372.34;5115057;28;20031;-72
2022/05/05 09:44:45;;;;;;;43.90;28.63;;;;;;;18.38;56.64;102377.81;5096541;28;20110;-69
2022/05/05 09:47:15;;;;;;;45.13;29.33;;;;;;;18.56;55.81;102382.38;5096757;28;20028;-69
2022/05/05 09:49:40;;;;;;;47.50;26.38;;;;;;;18.79;53.91;102372.78;5096983;28;20379;-70
2022/05/05 09:57:41;;;;;;;41.95;24.52;;;;;;;18.80;51.69;102382.56;5114845;28;20113;-70
2022/05/05 10:00:22;;;;;;;35.80;23.58;;;;;;;18.67;52.74;102385.69;5114637;28;20031;-70
2022/05/05 10:05:36;;;;;;;40.80;24.85;;;;;;;18.88;50.54;102387.19;5114733;28;20047;-71
2022/05/05 10:08:01;;;;;;;30.73;21.13;;;;;;;18.91;52.45;102392.28;5114550;28;20388;-70
2022/05/05 10:10:29;;;;;;;29.13;18.77;;;;;;;19.06;50.40;102395.25;5114389;28;20065;-70
2022/05/05 10:12:57;;;;;;;28.73;18.73;;;;;;;19.22;50.03;102391.00;5114327;28;20031;-70
2022/05/05 10:15:24;;;;;;;33.30;20.58;;;;;;;19.13;50.25;102399.03;5096391;28;20123;-70
2022/05/05 10:17:49;;;;;;;26.42;18.98;;;;;;;19.26;49.90;102387.81;5114838;28;20446;-70
2022/05/05 10:20:16;;;;;;;39.75;20.73;;;;;;;19.52;52.97;102398.59;5096233;28;20039;-70
2022/05/05 10:23:07;;;;;;;32.08;22.15;;;;;;;19.18;55.38;102391.31;5114197;28;20124;-70
2022/05/05 10:25:37;;;;;;;;;;;;;;;19.07;54.93;102393.44;5115075;28;20432;-71
2022/05/05 10:28:03;;;;;;;37.20;23.80;;;;;;;18.93;56.19;102393.00;5114178;28;19907;-70
2022/05/05 10:30:35;;;;;;;40.78;22.85;;;;;;;18.94;55.35;102396.53;5113884;28;20490;-71
2022/05/05 10:33:04;;;;;;;41.83;22.95;;;;;;;19.07;55.58;102388.03;5100025;28;20055;-70
2022/05/05 10:35:38;;;;;;;31.83;22.33;;;;;;;18.96;52.86;102395.38;5112698;28;20553;-70
2022/05/05 10:38:40;;;;;;;35.17;22.52;;;;;;;18.79;54.72;102396.22;5114497;28;20039;-70
2022/05/05 10:41:39;;;;;;;34.03;21.65;;;;;;;18.89;55.58;102394.31;5114171;28;20024;-71
2022/05/05 10:44:17;;;;;;;42.40;23.52;;;;;;;18.93;54.71;102397.53;5098226;28;20177;-70
2022/05/05 10:47:02;;;;;;;35.33;22.92;;;;;;;18.92;54.84;102398.53;5114079;28;20409;-71
2022/05/05 10:49:31;;;;;;;32.28;21.77;;;;;;;19.03;54.37;102393.75;5114058;28;20032;-70
2022/05/05 10:52:08;;;;;;;38.10;22.42;;;;;;;19.19;54.00;102398.38;5113893;28;20059;-70
2022/05/05 10:54:34;;;;;;;34.70;21.38;;;;;;;19.51;51.69;102398.75;5114235;28;20119;-70
2022/05/05 10:57:24;;;;;;;31.40;20.67;;;;;;;20.20;50.61;102398.75;5113934;28;20073;-69
2022/05/05 11:00:09;;;;;;;34.58;21.80;;;;;;;20.70;50.65;102399.69;5113964;28;20027;-70
2022/05/05 11:02:36;;;;;;;34.40;22.13;;;;;;;21.24;47.75;102408.09;5113770;28;20027;-70
2022/05/05 11:05:20;;;;;;;34.83;21.60;;;;;;;21.53;48.57;102414.81;5113725;28;20031;-71
2022/05/05 11:07:49;;;;;;;33.00;21.00;;;;;;;21.91;46.12;102401.47;5111537;28;20031;-71
2022/05/05 11:13:38;;;;;;;29.77;19.58;;;;;;;22.02;46.42;102398.38;5114202;28;20107;-71
2022/05/05 11:22:28;;;;;;;30.98;18.55;;;;;;;21.30;45.42;102412.81;5114182;28;20047;-70
2022/05/05 11:24:53;;;;;;;30.48;17.30;;;;;;;20.71;45.93;102415.72;5113727;28;20020;-70
2022/05/05 11:27:21;;;;;;;26.00;16.30;;;;;;;20.27;49.90;102397.03;5112084;28;20027;-69
2022/05/05 11:29:51;;;;;;;25.08;15.38;;;;;;;20.58;48.28;102397.25;5112131;28;20028;-70
2022/05/05 11:32:18;;;;;;;26.45;15.95;;;;;;;20.69;48.05;102400.69;5114190;28;20027;-70
2022/05/05 11:34:45;;;;;;;26.30;15.50;;;;;;;20.83;48.79;102402.72;5113478;28;20091;-70
2022/05/05 11:37:11;;;;;;;21.63;14.63;;;;;;;21.17;45.35;102404.38;5095168;28;20516;-69
2022/05/05 11:39:38;;;;;;;22.52;13.80;;;;;;;20.82;45.94;102413.72;5113368;28;20031;-70
2022/05/05 11:42:08;;;;;;;25.48;12.73;;;;;;;20.15;49.41;102411.88;5113942;28;20038;-70
2022/05/05 11:44:40;;;;;;;21.80;11.80;;;;;;;19.79;52.27;102410.22;5113487;28;20027;-70
2022/05/05 11:47:11;;;;;;;18.63;12.32;;;;;;;19.41;53.70;102415.06;5113365;28;20077;-70
2022/05/05 11:49:37;;;;;;;17.10;11.80;;;;;;;19.19;54.71;102411.88;5114187;28;20027;-70
2022/05/05 11:52:05;;;;;;;21.42;11.85;;;;;;;19.03;55.02;102411.75;5113284;28;20352;-70
2022/05/05 11:54:35;;;;;;;16.85;11.23;;;;;;;18.72;56.24;102417.56;5113297;28;20024;-70
2022/05/05 11:57:01;;;;;;;19.90;11.45;;;;;;;18.48;57.22;102421.72;5095285;28;20027;-70